Time;durP1;ratioP1;P1;durP2;ratioP2;P2;SDS_P1;SDS_P2;PMS_P1;PMS_P2;Temp;Humidity;BMP_temperature;BMP_pressure;BME280_temperature;BME280_humidity;BME280_pressure;Samples;Min_cycle;Max_cycle;Signal;HPM_P1;HPM_P2
2022/12/07 00:01:49;;;;;;;26.30;11.75;;;16.90;99.90;;;;;;7396304;19;19966;-41
2022/12/07 00:04:19;;;;;;;;;;;16.80;99.90;;;;;;7408173;19;19923;-40
2022/12/07 00:06:55;;;;;;;25.60;11.07;;;16.80;99.90;;;;;;7403389;19;19919;-41
2022/12/07 00:09:25;;;;;;;26.40;10.65;;;16.80;99.90;;;;;;7405179;19;20341;-41
2022/12/07 00:11:55;;;;;;;28.63;10.90;;;16.80;99.90;;;;;;7402622;19;19914;-41
2022/12/07 00:14:24;;;;;;;24.27;10.23;;;16.80;99.90;;;;;;7402789;19;19929;-41
2022/12/07 00:16:53;;;;;;;26.58;11.35;;;16.80;99.90;;;;;;7406272;19;19929;-41
2022/12/07 00:19:22;;;;;;;28.15;12.38;;;16.70;99.90;;;;;;7403348;19;19929;-41
2022/12/07 00:21:54;;;;;;;22.95;10.75;;;16.70;99.90;;;;;;7406253;19;20363;-39
2022/12/07 00:24:23;;;;;;;24.42;10.63;;;16.70;99.90;;;;;;7404082;19;20359;-40
2022/12/07 00:26:51;;;;;;;23.20;10.15;;;16.70;99.90;;;;;;7402235;19;19925;-41
2022/12/07 00:29:23;;;;;;;27.17;11.25;;;16.70;99.90;;;;;;7395665;19;19930;-41
2022/12/07 00:31:52;;;;;;;21.35;8.40;;;16.70;99.90;;;;;;7403741;19;19918;-41
2022/12/07 00:34:22;;;;;;;22.92;9.05;;;16.70;99.90;;;;;;7400416;19;19938;-40
2022/12/07 00:36:54;;;;;;;26.80;11.32;;;16.70;99.90;;;;;;7404468;19;19922;-40
2022/12/07 00:39:23;;;;;;;25.63;9.73;;;16.70;99.90;;;;;;7401912;19;20381;-40
2022/12/07 00:41:51;;;;;;;22.80;10.30;;;16.70;99.90;;;;;;7405289;19;19929;-41
2022/12/07 00:44:20;;;;;;;21.67;8.52;;;16.60;99.90;;;;;;7401207;19;20340;-41
2022/12/07 00:46:49;;;;;;;23.40;9.63;;;16.60;99.90;;;;;;7398371;19;19927;-41
2022/12/07 00:49:18;;;;;;;26.75;11.23;;;16.60;99.90;;;;;;7405070;19;19918;-41
2022/12/07 00:51:47;;;;;;;27.67;10.13;;;16.60;99.90;;;;;;7404994;19;19922;-40
2022/12/07 00:54:18;;;;;;;24.88;10.00;;;16.60;99.90;;;;;;7401959;19;19914;-41
2022/12/07 00:56:47;;;;;;;23.75;10.10;;;16.60;99.90;;;;;;7402638;19;19925;-40
2022/12/07 00:59:17;;;;;;;23.45;9.80;;;16.60;99.90;;;;;;7402485;19;19915;-43
2022/12/07 01:01:46;;;;;;;21.80;9.40;;;16.60;99.90;;;;;;7398117;19;19918;-45
2022/12/07 01:04:15;;;;;;;22.30;10.18;;;16.60;99.90;;;;;;7400289;19;19919;-45
2022/12/07 01:06:43;;;;;;;23.00;8.98;;;16.60;99.90;;;;;;7400568;19;20288;-41
2022/12/07 01:09:12;;;;;;;20.08;9.68;;;16.50;99.90;;;;;;7401829;19;20537;-42
2022/12/07 01:11:45;;;;;;;24.73;8.57;;;16.50;99.90;;;;;;7402866;19;19918;-44
2022/12/07 01:14:14;;;;;;;24.65;9.00;;;16.50;99.90;;;;;;7404660;19;19918;-41
2022/12/07 01:16:43;;;;;;;21.23;9.43;;;16.50;99.90;;;;;;7403525;19;20344;-39
2022/12/07 01:19:12;;;;;;;23.90;8.63;;;16.50;99.90;;;;;;7403419;19;19929;-41
2022/12/07 01:21:41;;;;;;;23.75;10.00;;;16.50;99.90;;;;;;7398848;19;19926;-41
2022/12/07 01:24:12;;;;;;;24.48;9.88;;;16.50;99.90;;;;;;7400061;19;19922;-41
2022/12/07 01:26:44;;;;;;;20.63;8.85;;;16.50;99.90;;;;;;7402425;19;19982;-41
2022/12/07 01:29:13;;;;;;;23.73;8.07;;;16.50;99.90;;;;;;7400028;19;19971;-43
2022/12/07 01:31:42;;;;;;;17.15;7.75;;;16.50;99.90;;;;;;7403856;19;19925;-41
2022/12/07 01:34:11;;;;;;;24.15;10.52;;;16.50;99.90;;;;;;7403020;19;20341;-41
2022/12/07 01:36:40;;;;;;;21.88;8.80;;;16.50;99.90;;;;;;7400110;19;19915;-40
2022/12/07 01:39:12;;;;;;;22.60;8.85;;;16.50;99.90;;;;;;7403528;19;19926;-40
2022/12/07 01:41:44;;;;;;;21.65;8.63;;;16.50;99.90;;;;;;7400112;19;19915;-40
2022/12/07 01:44:20;;;;;;;20.40;8.57;;;16.40;99.90;;;;;;7403834;19;19950;-41
2022/12/07 01:46:50;;;;;;;20.25;9.40;;;16.40;99.90;;;;;;7410870;19;20018;-40
2022/12/07 01:49:25;;;;;;;22.35;7.75;;;16.40;99.90;;;;;;7409608;19;20269;-41
2022/12/07 01:51:58;;;;;;;23.00;8.60;;;16.40;99.90;;;;;;7410346;19;19943;-40
2022/12/07 01:54:28;;;;;;;20.23;9.10;;;16.40;99.90;;;;;;7406583;19;20487;-41
2022/12/07 01:57:01;;;;;;;19.00;8.65;;;16.40;99.90;;;;;;7406910;19;19915;-41
2022/12/07 01:59:30;;;;;;;19.05;7.70;;;16.40;99.90;;;;;;7409675;19;19930;-41
2022/12/07 02:01:59;;;;;;;20.40;7.57;;;16.40;99.90;;;;;;7401706;19;19923;-40
2022/12/07 02:04:28;;;;;;;21.00;8.25;;;16.40;99.90;;;;;;7408585;19;19929;-41
2022/12/07 02:06:58;;;;;;;20.45;7.60;;;16.40;99.90;;;;;;7409653;19;19922;-41
2022/12/07 02:09:27;;;;;;;18.45;8.45;;;16.40;99.90;;;;;;7406285;19;19922;-40
2022/12/07 02:11:59;;;;;;;19.27;8.35;;;16.40;99.90;;;;;;7407598;19;19921;-41
2022/12/07 02:14:28;;;;;;;21.77;8.50;;;16.40;99.90;;;;;;7406306;19;20649;-40
2022/12/07 02:17:09;;;;;;;15.43;7.30;;;16.30;99.90;;;;;;7401334;19;19914;-40
2022/12/07 02:20:10;;;;;;;19.13;7.72;;;16.30;99.90;;;;;;7406680;19;19941;-41
2022/12/07 02:23:13;;;;;;;20.88;7.93;;;16.30;99.90;;;;;;7407482;19;19997;-40
2022/12/07 02:26:00;;;;;;;15.63;7.03;;;16.30;99.90;;;;;;7402928;19;19910;-41
2022/12/07 02:28:36;;;;;;;19.45;7.82;;;16.30;99.90;;;;;;7405993;19;19910;-40
2022/12/07 02:31:14;;;;;;;18.70;7.80;;;16.30;99.90;;;;;;7403379;19;19921;-40
2022/12/07 02:33:49;;;;;;;18.77;6.30;;;16.30;99.90;;;;;;7399502;19;19947;-40
2022/12/07 02:36:24;;;;;;;21.85;8.90;;;16.30;99.90;;;;;;7406562;19;19924;-40
2022/12/07 02:38:58;;;;;;;17.88;8.18;;;16.30;99.90;;;;;;7408459;19;19921;-41
2022/12/07 02:41:32;;;;;;;16.60;7.93;;;16.30;99.90;;;;;;7408167;19;19922;-42
2022/12/07 02:44:04;;;;;;;18.83;7.18;;;16.30;99.90;;;;;;7408028;19;19954;-40
2022/12/07 02:46:40;;;;;;;15.43;5.90;;;16.30;99.90;;;;;;7403807;19;19938;-41
2022/12/07 02:49:09;;;;;;;;;;;16.30;99.90;;;;;;7410791;19;19926;-41
2022/12/07 02:51:43;;;;;;;16.80;6.28;;;16.20;99.90;;;;;;7399114;19;19918;-41
2022/12/07 02:54:14;;;;;;;17.60;7.40;;;16.20;99.90;;;;;;7404490;19;19974;-40
2022/12/07 02:56:50;;;;;;;20.13;6.38;;;16.20;99.90;;;;;;7405314;19;20356;-41
2022/12/07 02:59:31;;;;;;;14.82;7.00;;;16.20;99.90;;;;;;7407338;19;19915;-40
2022/12/07 03:02:15;;;;;;;14.18;5.43;;;16.20;99.90;;;;;;7406396;19;20264;-40
2022/12/07 03:04:53;;;;;;;18.63;7.25;;;16.20;99.90;;;;;;7405948;19;20283;-42
2022/12/07 03:07:33;;;;;;;16.50;6.40;;;16.20;99.90;;;;;;7399381;19;20410;-42
2022/12/07 03:10:06;;;;;;;15.07;7.00;;;16.20;99.90;;;;;;7403156;19;19939;-41
2022/12/07 03:12:45;;;;;;;14.93;7.50;;;16.20;99.90;;;;;;7405261;19;19917;-42
2022/12/07 03:15:18;;;;;;;17.38;6.85;;;16.20;99.90;;;;;;7406550;19;20345;-41
2022/12/07 03:17:51;;;;;;;12.93;5.65;;;16.20;99.90;;;;;;7405329;19;19942;-41
2022/12/07 03:20:24;;;;;;;15.90;7.43;;;16.20;99.90;;;;;;7406980;19;20376;-41
2022/12/07 03:22:55;;;;;;;14.85;6.97;;;16.10;99.90;;;;;;7404742;19;19922;-40
2022/12/07 03:25:25;;;;;;;15.65;7.43;;;16.10;99.90;;;;;;7398917;19;19937;-42
2022/12/07 03:27:58;;;;;;;15.30;6.20;;;16.10;99.90;;;;;;7403856;19;19919;-41
2022/12/07 03:30:31;;;;;;;14.93;6.45;;;16.10;99.90;;;;;;7404491;19;19922;-42
2022/12/07 03:33:08;;;;;;;14.60;7.15;;;16.10;99.90;;;;;;7406124;19;19925;-41
2022/12/07 03:35:41;;;;;;;16.10;6.88;;;16.10;99.90;;;;;;7403808;19;19918;-40
2022/12/07 03:38:18;;;;;;;15.52;6.47;;;16.10;99.90;;;;;;7403624;19;19926;-40
2022/12/07 03:40:53;;;;;;;15.90;6.82;;;16.10;99.90;;;;;;7404953;19;19922;-41
2022/12/07 03:43:22;;;;;;;16.42;6.53;;;16.10;99.90;;;;;;7398415;19;19926;-41
2022/12/07 03:45:59;;;;;;;14.45;6.85;;;16.10;99.90;;;;;;7404413;19;19933;-42
2022/12/07 03:48:37;;;;;;;13.27;6.38;;;16.10;99.90;;;;;;7401611;19;19927;-43
2022/12/07 03:51:13;;;;;;;12.63;5.28;;;16.10;99.90;;;;;;7405488;19;19926;-42
2022/12/07 03:53:45;;;;;;;13.82;6.70;;;16.10;99.90;;;;;;7404325;19;19915;-45
2022/12/07 03:56:16;;;;;;;12.25;4.35;;;16.00;99.90;;;;;;7404916;19;19918;-41
2022/12/07 03:58:45;;;;;;;11.15;5.60;;;16.00;99.90;;;;;;7405897;19;19922;-41
2022/12/07 04:01:14;;;;;;;13.93;6.07;;;16.00;99.90;;;;;;7404380;19;19925;-41
2022/12/07 04:03:46;;;;;;;13.95;5.35;;;16.00;99.90;;;;;;7399211;19;19922;-40
2022/12/07 04:06:15;;;;;;;15.70;5.63;;;16.00;99.90;;;;;;7397750;19;19926;-42
2022/12/07 04:08:44;;;;;;;11.75;5.70;;;16.00;99.90;;;;;;7398878;19;19918;-40
2022/12/07 04:11:13;;;;;;;13.93;5.95;;;16.00;99.90;;;;;;7404936;19;19923;-40
2022/12/07 04:16:24;;;;;;;13.73;5.72;;;16.00;99.90;;;;;;7401455;19;19977;-41
2022/12/07 04:18:55;;;;;;;12.60;4.53;;;15.90;99.90;;;;;;7404463;19;20290;-41
2022/12/07 04:21:24;;;;;;;12.60;5.47;;;15.90;99.90;;;;;;7398474;19;20340;-41
2022/12/07 04:23:53;;;;;;;12.98;6.28;;;16.00;99.90;;;;;;7404113;19;19937;-40
2022/12/07 04:26:22;;;;;;;15.32;5.30;;;15.90;99.90;;;;;;7400065;19;20276;-40
2022/12/07 04:28:50;;;;;;;10.98;5.72;;;15.90;99.90;;;;;;7403554;19;19930;-41
2022/12/07 04:31:19;;;;;;;13.25;5.68;;;15.90;99.90;;;;;;7401630;19;19923;-41
2022/12/07 04:33:48;;;;;;;13.20;5.82;;;15.90;99.90;;;;;;7403607;19;19922;-41
2022/12/07 04:36:20;;;;;;;16.65;6.53;;;15.90;99.90;;;;;;7403826;19;19929;-41
2022/12/07 04:38:49;;;;;;;11.35;4.10;;;15.90;99.90;;;;;;7403416;19;19931;-41
2022/12/07 04:41:18;;;;;;;11.98;6.30;;;15.90;99.90;;;;;;7402410;19;19927;-40
2022/12/07 04:43:47;;;;;;;12.27;4.55;;;15.90;99.90;;;;;;7395619;19;19930;-40
2022/12/07 04:46:16;;;;;;;12.02;4.43;;;15.90;99.90;;;;;;7397380;19;19923;-40
2022/12/07 04:48:44;;;;;;;11.75;5.65;;;15.80;99.90;;;;;;7401591;19;19915;-41
2022/12/07 04:51:13;;;;;;;13.25;5.10;;;15.90;99.90;;;;;;7401856;19;19933;-40
2022/12/07 04:53:45;;;;;;;10.07;4.47;;;15.80;99.90;;;;;;7402440;19;19922;-40
2022/12/07 04:56:14;;;;;;;11.95;4.57;;;15.80;99.90;;;;;;7404082;19;19927;-40
2022/12/07 04:58:43;;;;;;;10.45;4.13;;;15.80;99.90;;;;;;7401639;19;19923;-41
2022/12/07 05:01:12;;;;;;;11.95;5.47;;;15.90;99.90;;;;;;7394987;19;19918;-42
2022/12/07 05:03:41;;;;;;;11.23;5.05;;;15.90;99.90;;;;;;7404343;19;19921;-40
2022/12/07 05:06:10;;;;;;;11.65;5.20;;;15.90;99.90;;;;;;7401834;19;19929;-40
2022/12/07 05:08:39;;;;;;;12.45;6.10;;;15.90;99.90;;;;;;7401131;19;19978;-41
2022/12/07 05:11:37;;;;;;;11.68;4.25;;;15.90;99.90;;;;;;7403302;19;20352;-41
2022/12/07 05:14:01;;;;;;;12.23;5.03;;;15.90;99.90;;;;;;7401298;19;19922;-42
2022/12/07 05:16:30;;;;;;;8.60;3.47;;;15.90;99.90;;;;;;7395171;19;19923;-40
2022/12/07 05:18:59;;;;;;;9.90;3.92;;;15.90;99.90;;;;;;7407822;19;19926;-41
2022/12/07 05:21:28;;;;;;;12.23;4.35;;;15.90;99.90;;;;;;7408911;19;20341;-40
2022/12/07 05:23:57;;;;;;;12.55;4.15;;;15.90;99.90;;;;;;7406645;19;19918;-40
2022/12/07 05:26:29;;;;;;;11.07;4.97;;;15.90;99.90;;;;;;7405367;19;19925;-41
2022/12/07 05:28:59;;;;;;;10.13;4.50;;;15.90;99.90;;;;;;7406544;19;19922;-41
2022/12/07 05:31:30;;;;;;;11.10;5.10;;;15.90;99.90;;;;;;7408547;19;19918;-41
2022/12/07 05:33:59;;;;;;;8.50;3.72;;;15.90;99.90;;;;;;7402542;19;20616;-40
2022/12/07 05:36:28;;;;;;;9.77;4.35;;;15.90;99.90;;;;;;7405498;19;19990;-40
2022/12/07 05:38:57;;;;;;;9.63;4.15;;;15.90;99.90;;;;;;7408122;19;19919;-40
2022/12/07 05:44:10;;;;;;;9.13;4.38;;;15.80;99.90;;;;;;7409948;19;19978;-42
2022/12/07 05:46:39;;;;;;;10.68;4.00;;;15.80;99.90;;;;;;7405374;19;19922;-40
2022/12/07 05:49:08;;;;;;;9.38;3.88;;;15.80;99.90;;;;;;7411717;19;19922;-41
2022/12/07 05:51:37;;;;;;;11.00;4.60;;;15.80;99.90;;;;;;7399962;19;20387;-41
2022/12/07 05:54:06;;;;;;;11.55;3.67;;;15.80;99.90;;;;;;7409788;19;19978;-40
2022/12/07 05:56:37;;;;;;;10.00;4.72;;;15.80;99.90;;;;;;7407605;19;19978;-41
2022/12/07 06:01:47;;;;;;;8.20;3.60;;;15.80;99.90;;;;;;7406602;19;20273;-39
2022/12/07 06:04:16;;;;;;;10.57;4.80;;;15.70;99.90;;;;;;7407675;19;19926;-40
2022/12/07 06:06:45;;;;;;;10.50;4.70;;;15.80;99.90;;;;;;7403592;19;19923;-40
2022/12/07 06:09:15;;;;;;;11.13;5.35;;;15.80;99.90;;;;;;7403114;19;19918;-40
2022/12/07 06:14:28;;;;;;;9.75;4.30;;;15.70;99.90;;;;;;7405791;19;19921;-40
2022/12/07 06:16:57;;;;;;;10.63;4.82;;;15.70;99.90;;;;;;7407233;19;19929;-41
2022/12/07 06:19:28;;;;;;;7.32;3.30;;;15.70;99.90;;;;;;7407167;19;20277;-41
2022/12/07 06:21:58;;;;;;;10.13;3.78;;;15.70;99.90;;;;;;7407785;19;19923;-40
2022/12/07 06:24:27;;;;;;;10.63;4.85;;;15.70;99.90;;;;;;7406903;19;19978;-40
2022/12/07 06:26:58;;;;;;;8.90;3.60;;;15.70;99.90;;;;;;7397412;19;20323;-41
2022/12/07 06:29:27;;;;;;;9.57;4.45;;;15.70;99.90;;;;;;7392516;19;19985;-40
2022/12/07 06:31:56;;;;;;;10.05;3.50;;;15.70;99.90;;;;;;7410092;19;20256;-40
2022/12/07 06:34:26;;;;;;;9.00;4.25;;;15.70;99.90;;;;;;7404364;19;19918;-40
2022/12/07 06:36:55;;;;;;;8.82;4.25;;;15.70;99.90;;;;;;7408829;19;19923;-40
2022/12/07 06:39:26;;;;;;;8.93;4.28;;;15.70;99.90;;;;;;7407760;19;20341;-40
2022/12/07 06:41:58;;;;;;;10.07;4.40;;;15.70;99.90;;;;;;7405224;19;19974;-40
2022/12/07 06:44:28;;;;;;;10.55;4.05;;;15.60;99.90;;;;;;7405630;19;19926;-44
2022/12/07 06:46:57;;;;;;;7.53;3.70;;;15.70;99.90;;;;;;7399105;19;19922;-44
2022/12/07 06:49:26;;;;;;;10.55;4.90;;;15.70;99.90;;;;;;7407497;19;19982;-44
2022/12/07 06:51:55;;;;;;;9.30;3.88;;;15.70;99.90;;;;;;7406593;19;19943;-44
2022/12/07 06:54:24;;;;;;;8.00;3.67;;;15.70;99.90;;;;;;7404389;19;19926;-44
2022/12/07 06:56:53;;;;;;;9.65;3.65;;;15.70;99.90;;;;;;7405779;19;19932;-43
2022/12/07 06:59:25;;;;;;;9.68;4.22;;;15.70;99.90;;;;;;7406774;19;19923;-43
2022/12/07 07:01:54;;;;;;;7.82;2.60;;;15.70;99.90;;;;;;7405510;19;20308;-41
2022/12/07 07:04:23;;;;;;;7.55;2.83;;;15.70;99.90;;;;;;7402453;19;20291;-43
2022/12/07 07:06:52;;;;;;;6.68;3.40;;;15.60;99.90;;;;;;7392776;19;19923;-43
2022/12/07 07:09:21;;;;;;;9.45;2.85;;;15.60;99.90;;;;;;7408024;19;19918;-43
2022/12/07 07:11:50;;;;;;;8.13;4.25;;;15.60;99.90;;;;;;7405694;19;19933;-43
2022/12/07 07:14:19;;;;;;;6.97;3.35;;;15.60;99.90;;;;;;7404203;19;19926;-43
2022/12/07 07:16:51;;;;;;;7.85;3.60;;;15.70;99.90;;;;;;7402767;19;19993;-42
2022/12/07 07:19:20;;;;;;;8.48;2.67;;;15.70;99.90;;;;;;7405646;19;19930;-43
2022/12/07 07:21:49;;;;;;;8.02;3.50;;;15.70;99.90;;;;;;7404972;19;19986;-44
2022/12/07 07:24:18;;;;;;;9.07;3.25;;;15.60;99.90;;;;;;7405191;19;19939;-43
2022/12/07 07:26:47;;;;;;;9.32;2.95;;;15.60;99.90;;;;;;7403312;19;20265;-43
2022/12/07 07:29:16;;;;;;;12.35;4.03;;;15.60;99.90;;;;;;7405767;19;19925;-42
2022/12/07 07:31:45;;;;;;;8.68;3.97;;;15.60;99.90;;;;;;7403429;19;19979;-43
2022/12/07 07:34:16;;;;;;;10.32;3.72;;;15.60;99.90;;;;;;7404995;19;19918;-42
2022/12/07 07:36:45;;;;;;;7.90;3.05;;;15.60;99.90;;;;;;7403453;19;20280;-43
2022/12/07 07:39:15;;;;;;;6.05;2.40;;;15.60;99.90;;;;;;7404191;19;19922;-44
2022/12/07 07:41:44;;;;;;;8.65;2.58;;;15.60;99.90;;;;;;7405468;19;19926;-42
2022/12/07 07:44:12;;;;;;;8.43;2.72;;;15.60;99.90;;;;;;7403659;19;19926;-45
2022/12/07 07:46:41;;;;;;;9.43;3.47;;;15.60;99.90;;;;;;7401990;19;19926;-43
2022/12/07 07:49:12;;;;;;;6.45;2.50;;;15.60;99.90;;;;;;7403341;19;19925;-43
2022/12/07 07:51:43;;;;;;;6.60;2.88;;;15.60;99.90;;;;;;7403262;19;19930;-42
2022/12/07 07:54:12;;;;;;;7.05;3.05;;;15.60;99.90;;;;;;7403092;19;19919;-44
2022/12/07 07:56:41;;;;;;;8.57;3.00;;;15.60;99.90;;;;;;7404288;19;19930;-43
2022/12/07 07:59:10;;;;;;;6.70;3.33;;;15.50;99.90;;;;;;7402883;19;19925;-43
2022/12/07 08:01:39;;;;;;;6.93;3.22;;;15.50;99.90;;;;;;7400469;19;19922;-43
2022/12/07 08:04:08;;;;;;;7.68;2.58;;;15.50;99.90;;;;;;7402976;19;19914;-43
2022/12/07 08:06:37;;;;;;;7.13;3.15;;;15.50;99.90;;;;;;7401493;19;19961;-43
2022/12/07 08:09:09;;;;;;;6.93;3.20;;;15.50;99.90;;;;;;7402453;19;20650;-43
2022/12/07 08:11:38;;;;;;;7.45;3.15;;;15.50;99.90;;;;;;7402528;19;20309;-43
2022/12/07 08:14:06;;;;;;;6.13;2.95;;;15.50;99.90;;;;;;7401782;19;20278;-43
2022/12/07 08:16:35;;;;;;;6.82;2.33;;;15.50;99.90;;;;;;7403911;19;19941;-43
2022/12/07 08:19:07;;;;;;;8.35;2.97;;;15.50;99.90;;;;;;7405375;19;19915;-44
2022/12/07 08:21:36;;;;;;;8.38;3.42;;;15.50;99.90;;;;;;7402933;19;19922;-43
2022/12/07 08:24:09;;;;;;;7.07;2.22;;;15.50;99.90;;;;;;7400519;19;19930;-43
2022/12/07 08:26:38;;;;;;;6.68;2.42;;;15.50;99.90;;;;;;7403521;19;19911;-44
2022/12/07 08:29:07;;;;;;;7.20;3.63;;;15.50;99.90;;;;;;7405093;19;19919;-42
2022/12/07 08:31:36;;;;;;;7.05;2.72;;;15.50;99.90;;;;;;7402260;19;19914;-42
2022/12/07 08:34:08;;;;;;;6.00;2.42;;;15.50;99.90;;;;;;7400275;19;19927;-42
2022/12/07 08:36:36;;;;;;;6.80;2.95;;;15.50;99.90;;;;;;7401382;19;20815;-42
2022/12/07 08:39:08;;;;;;;7.72;3.13;;;15.50;99.90;;;;;;7401880;19;19919;-43
2022/12/07 08:41:37;;;;;;;6.68;2.03;;;15.50;99.90;;;;;;7406611;19;19922;-42
2022/12/07 08:44:07;;;;;;;6.97;2.88;;;15.50;99.90;;;;;;7401710;19;19937;-43
2022/12/07 08:46:39;;;;;;;6.28;1.77;;;15.50;99.90;;;;;;7401055;19;20285;-44
2022/12/07 08:49:13;;;;;;;7.07;1.65;;;15.50;99.90;;;;;;7401405;19;19919;-42
2022/12/07 08:51:43;;;;;;;5.72;2.50;;;15.50;99.90;;;;;;7401497;19;20727;-42
2022/12/07 08:54:19;;;;;;;6.85;3.03;;;15.50;99.90;;;;;;7407117;19;19926;-43
2022/12/07 08:56:50;;;;;;;8.43;3.00;;;15.50;99.90;;;;;;7411150;19;19922;-43
2022/12/07 08:59:21;;;;;;;7.00;3.03;;;15.60;99.90;;;;;;7408301;19;19939;-42
2022/12/07 09:01:50;;;;;;;6.95;2.78;;;15.50;99.90;;;;;;7409953;19;19918;-44
2022/12/07 09:04:20;;;;;;;6.03;2.08;;;15.60;99.90;;;;;;7408207;19;19927;-43
2022/12/07 09:06:49;;;;;;;;;;;15.60;99.90;;;;;;7409857;19;19926;-43
2022/12/07 09:09:20;;;;;;;6.05;2.25;;;15.60;99.90;;;;;;7406947;19;19918;-44
2022/12/07 09:11:49;;;;;;;7.53;2.28;;;15.60;99.90;;;;;;7407618;19;19923;-43
2022/12/07 09:14:18;;;;;;;5.43;2.05;;;15.60;99.90;;;;;;7408050;19;19919;-43
2022/12/07 09:16:50;;;;;;;6.70;2.70;;;15.60;99.90;;;;;;7407653;19;19922;-43
2022/12/07 09:19:20;;;;;;;6.15;2.15;;;15.60;99.90;;;;;;7407666;19;19923;-43
2022/12/07 09:21:49;;;;;;;5.78;2.58;;;15.50;99.90;;;;;;7407443;19;19929;-42
2022/12/07 09:24:20;;;;;;;6.68;3.22;;;15.60;99.90;;;;;;7407356;19;19918;-44
2022/12/07 09:26:49;;;;;;;5.95;1.92;;;15.60;99.90;;;;;;7408568;19;20300;-43
2022/12/07 09:29:18;;;;;;;5.20;1.73;;;15.60;99.90;;;;;;7410391;19;19929;-43
2022/12/07 09:31:47;;;;;;;4.85;2.50;;;15.60;99.90;;;;;;7410101;19;19910;-43
2022/12/07 09:34:16;;;;;;;4.45;1.63;;;15.60;99.90;;;;;;7409118;19;19978;-43
2022/12/07 09:36:45;;;;;;;6.18;2.10;;;15.60;99.90;;;;;;7406200;19;19932;-44
2022/12/07 09:39:14;;;;;;;6.05;1.77;;;15.70;99.90;;;;;;7405865;19;19931;-55
2022/12/07 09:41:47;;;;;;;6.32;2.28;;;15.60;99.90;;;;;;7410992;19;20237;-43
2022/12/07 09:44:20;;;;;;;5.53;1.77;;;15.60;99.90;;;;;;7407116;19;19923;-43
2022/12/07 09:46:49;;;;;;;5.72;2.80;;;15.70;99.90;;;;;;7406359;19;19978;-43
2022/12/07 09:49:22;;;;;;;5.20;1.67;;;15.70;99.90;;;;;;7406443;19;19934;-43
2022/12/07 09:52:03;;;;;;;5.75;2.38;;;15.70;99.90;;;;;;7407191;19;19943;-43
2022/12/07 09:54:33;;;;;;;5.40;1.63;;;15.70;99.90;;;;;;7406370;19;19926;-45
2022/12/07 09:57:04;;;;;;;5.22;2.10;;;15.80;99.90;;;;;;7406732;19;19915;-42
2022/12/07 09:59:33;;;;;;;4.95;2.60;;;15.80;99.90;;;;;;7405651;19;19914;-42
2022/12/07 10:02:26;;;;;;;5.43;1.75;;;15.80;99.90;;;;;;7411845;19;20531;-43
2022/12/07 10:04:55;;;;;;;5.32;1.80;;;15.80;99.90;;;;;;7409433;19;20249;-43
2022/12/07 10:07:24;;;;;;;6.07;2.22;;;15.80;99.90;;;;;;7406141;19;19915;-44
2022/12/07 10:09:53;;;;;;;5.55;2.63;;;15.80;99.90;;;;;;7406045;19;20002;-43
2022/12/07 10:12:24;;;;;;;5.53;2.35;;;15.80;99.90;;;;;;7406603;19;19922;-42
2022/12/07 10:14:58;;;;;;;6.43;2.58;;;15.80;99.90;;;;;;7406361;19;19926;-43
2022/12/07 10:17:34;;;;;;;5.82;1.60;;;15.80;99.90;;;;;;7406008;19;19933;-43
2022/12/07 10:20:24;;;;;;;5.35;2.60;;;15.80;99.90;;;;;;7406124;19;19918;-43
2022/12/07 10:23:04;;;;;;;4.20;1.33;;;15.80;99.90;;;;;;7405943;19;19919;-43
2022/12/07 10:25:36;;;;;;;4.85;2.00;;;15.80;99.90;;;;;;7405863;19;19931;-43
2022/12/07 10:28:15;;;;;;;5.90;2.17;;;15.80;99.90;;;;;;7403823;19;19923;-43
2022/12/07 10:30:57;;;;;;;6.40;1.77;;;15.80;99.90;;;;;;7406863;19;19942;-42
2022/12/07 10:33:34;;;;;;;5.65;2.08;;;15.80;99.90;;;;;;7404575;19;19923;-42
2022/12/07 10:36:20;;;;;;;4.97;2.08;;;15.80;99.90;;;;;;7405098;19;19917;-43
2022/12/07 10:38:52;;;;;;;5.22;1.55;;;15.80;99.90;;;;;;7405389;19;19910;-43
2022/12/07 10:41:21;;;;;;;6.97;2.08;;;15.80;99.90;;;;;;7405358;19;20022;-43
2022/12/07 10:43:55;;;;;;;5.88;2.08;;;15.80;99.90;;;;;;7404980;19;19918;-43
2022/12/07 10:47:00;;;;;;;5.50;2.08;;;15.80;99.90;;;;;;7407277;19;19933;-43
2022/12/07 10:49:58;;;;;;;5.18;1.50;;;15.80;99.90;;;;;;7404728;19;19929;-42
2022/12/07 10:53:01;;;;;;;5.38;2.05;;;15.80;99.90;;;;;;7408345;19;20297;-43
2022/12/07 10:55:40;;;;;;;6.90;1.65;;;15.80;99.90;;;;;;7404604;19;19921;-43
2022/12/07 10:58:29;;;;;;;4.55;1.52;;;15.80;99.90;;;;;;7404580;19;19982;-44
2022/12/07 11:01:09;;;;;;;6.82;1.80;;;15.80;99.90;;;;;;7406039;19;20341;-43
2022/12/07 11:03:48;;;;;;;4.97;2.28;;;15.80;99.90;;;;;;7391656;19;19918;-44
2022/12/07 11:06:27;;;;;;;4.13;1.85;;;15.80;99.90;;;;;;7406531;19;19926;-44
2022/12/07 11:09:17;;;;;;;4.80;3.08;;;15.80;99.90;;;;;;7401527;19;20361;-44
2022/12/07 11:11:54;;;;;;;4.50;1.95;;;16.00;99.90;;;;;;7405621;19;19996;-44
2022/12/07 11:14:29;;;;;;;5.05;1.45;;;16.10;99.90;;;;;;7404528;19;19994;-43
2022/12/07 11:17:08;;;;;;;3.50;1.27;;;16.30;99.90;;;;;;7396219;19;19929;-43
2022/12/07 11:19:56;;;;;;;4.55;2.35;;;16.50;99.90;;;;;;7405839;19;20012;-43
2022/12/07 11:22:39;;;;;;;4.65;1.17;;;16.70;99.90;;;;;;7405735;19;19919;-43
2022/12/07 11:25:23;;;;;;;4.15;1.30;;;17.00;99.90;;;;;;7405251;19;19922;-43
2022/12/07 11:28:09;;;;;;;6.95;2.00;;;17.10;99.90;;;;;;7403521;19;19926;-44
2022/12/07 11:30:49;;;;;;;5.22;1.88;;;17.40;99.90;;;;;;7407659;19;19932;-43
2022/12/07 11:33:29;;;;;;;5.97;1.30;;;17.50;99.90;;;;;;7404114;19;19918;-45
2022/12/07 11:36:09;;;;;;;4.40;1.35;;;17.70;99.80;;;;;;7395660;19;20357;-44
2022/12/07 11:38:45;;;;;;;4.65;1.45;;;17.90;99.60;;;;;;7405414;19;19914;-42
2022/12/07 11:41:15;;;;;;;3.97;1.48;;;18.00;99.50;;;;;;7403666;19;19927;-43
2022/12/07 11:44:04;;;;;;;5.10;1.55;;;18.20;99.60;;;;;;7405025;19;19931;-43
2022/12/07 11:46:45;;;;;;;4.25;1.35;;;18.30;99.30;;;;;;7407668;19;20254;-43
2022/12/07 11:49:23;;;;;;;3.97;2.00;;;18.40;99.20;;;;;;7405371;19;20559;-45
2022/12/07 11:51:55;;;;;;;4.47;1.77;;;18.50;99.20;;;;;;7395890;19;20066;-44
2022/12/07 11:54:29;;;;;;;4.80;1.63;;;18.70;99.10;;;;;;7406329;19;20365;-44
2022/12/07 11:57:04;;;;;;;3.88;1.85;;;18.80;99.10;;;;;;7402872;19;19915;-44
2022/12/07 11:59:38;;;;;;;3.70;1.70;;;18.90;99.10;;;;;;7406864;19;19941;-44
2022/12/07 12:02:17;;;;;;;3.58;1.08;;;19.00;98.90;;;;;;7406258;19;19974;-44
2022/12/07 12:04:57;;;;;;;4.30;1.48;;;19.00;98.80;;;;;;7404944;19;19926;-45
2022/12/07 12:07:29;;;;;;;3.80;1.80;;;19.10;98.70;;;;;;7405094;19;19926;-46
2022/12/07 12:10:02;;;;;;;3.35;0.90;;;19.10;98.80;;;;;;7394865;19;19922;-44
2022/12/07 12:12:55;;;;;;;3.65;1.45;;;19.20;98.70;;;;;;7405593;19;19927;-45
2022/12/07 12:15:38;;;;;;;3.63;1.65;;;19.20;98.80;;;;;;7404007;19;19918;-42
2022/12/07 12:18:39;;;;;;;4.75;1.95;;;19.30;98.50;;;;;;7405966;19;19922;-44
2022/12/07 12:21:15;;;;;;;3.90;1.90;;;19.30;98.50;;;;;;7403705;19;20362;-44
2022/12/07 12:23:49;;;;;;;3.92;1.38;;;19.40;98.60;;;;;;7403164;19;19924;-43
2022/12/07 12:26:22;;;;;;;3.70;1.90;;;19.30;98.60;;;;;;7395363;19;20015;-44
2022/12/07 12:28:58;;;;;;;3.10;1.42;;;19.30;98.70;;;;;;7385978;19;19960;-44
2022/12/07 12:31:39;;;;;;;3.28;1.80;;;19.30;98.50;;;;;;7402977;19;19978;-44
2022/12/07 12:34:34;;;;;;;4.05;2.08;;;19.40;98.40;;;;;;7400179;19;19925;-43
2022/12/07 12:37:16;;;;;;;3.55;1.75;;;19.40;98.40;;;;;;7401852;19;19929;-44
2022/12/07 12:40:20;;;;;;;4.55;1.63;;;19.40;98.50;;;;;;7401930;19;19911;-45
2022/12/07 12:42:51;;;;;;;4.85;1.63;;;19.50;98.20;;;;;;7401435;19;20376;-43
2022/12/07 12:45:24;;;;;;;3.35;1.83;;;19.50;98.40;;;;;;7401426;19;19934;-44
2022/12/07 12:48:02;;;;;;;3.17;1.40;;;19.60;98.40;;;;;;7402454;19;19937;-44
2022/12/07 12:50:34;;;;;;;3.67;1.58;;;19.70;98.20;;;;;;7402803;19;19933;-45
2022/12/07 12:53:26;;;;;;;4.07;2.00;;;19.70;98.30;;;;;;7400980;19;19923;-46
2022/12/07 12:56:22;;;;;;;4.00;1.70;;;19.70;98.10;;;;;;7401075;19;19928;-51
2022/12/07 12:59:11;;;;;;;3.53;1.40;;;19.80;98.00;;;;;;7401277;19;19918;-46
2022/12/07 13:01:45;;;;;;;3.20;1.33;;;19.90;98.20;;;;;;7400884;19;19923;-47
2022/12/07 13:04:52;;;;;;;3.17;1.67;;;19.90;98.10;;;;;;7403690;19;19982;-44
2022/12/07 13:07:51;;;;;;;3.30;1.20;;;20.00;98.20;;;;;;7399736;19;20020;-48
2022/12/07 13:10:36;;;;;;;4.75;1.50;;;20.00;97.90;;;;;;7403448;19;19941;-45
2022/12/07 13:13:07;;;;;;;3.78;1.60;;;20.10;97.90;;;;;;7398657;19;19914;-44
2022/12/07 13:15:39;;;;;;;4.35;1.90;;;20.10;98.30;;;;;;7400941;19;19933;-43
2022/12/07 13:18:39;;;;;;;4.50;2.00;;;20.10;98.00;;;;;;7405099;19;19914;-45
2022/12/07 13:21:38;;;;;;;4.25;1.63;;;20.20;97.70;;;;;;7402177;19;19939;-44
2022/12/07 13:24:13;;;;;;;3.33;1.23;;;20.20;97.70;;;;;;7400246;19;19919;-44
2022/12/07 13:26:46;;;;;;;2.78;1.40;;;20.20;97.80;;;;;;7402007;19;20345;-42